Terminal Aerodrome Forecast
Issued by NWS

Home | Current Version | Previous Version | Text Only | Print | Product List | Glossary On
Versions: 1 2 3 4 5 6 7 8 9 10 11 12 13 14 15 16 17 18
000
FTUS45 KBOI 091412 AAA
TAFJER
TAF AMD
KJER 091412Z 0914/1012 06011KT P6SM VCSH FEW025 BKN050
      TEMPO 0914/0917 6SM -FZRA BR BKN035
     FM091700 06009KT 6SM -SN BR SCT025 OVC035
     FM091900 06006KT 6SM -RA BR OVC025
     FM092200 20008KT 3SM -RA BR OVC020=

USA.gov is the U.S. government's official web portal to all federal, state and local government web resources and services.